createdAt,value
2022-09-05T00:00:44.842Z,20.14
2022-09-05T00:01:44.813Z,20.09
2022-09-05T00:02:49.005Z,20.13
2022-09-05T00:03:44.958Z,20.19
2022-09-05T00:04:44.796Z,20.10
2022-09-05T00:05:48.359Z,20.09
2022-09-05T00:06:45.760Z,20.16
2022-09-05T00:07:59.525Z,20.13
2022-09-05T00:08:45.743Z,20.06
2022-09-05T00:09:44.726Z,20.13
2022-09-05T00:11:39.680Z,20.10
2022-09-05T00:11:45.725Z,20.03
2022-09-05T00:12:44.699Z,20.03
2022-09-05T00:13:44.684Z,20.07
2022-09-05T00:15:16.246Z,20.03
2022-09-05T00:15:45.741Z,20.00
2022-09-05T00:16:44.666Z,20.03
2022-09-05T00:20:46.719Z,19.95
2022-09-05T00:24:17.725Z,19.95
2022-09-05T00:24:19.987Z,19.94
2022-09-05T00:24:28.310Z,19.94
2022-09-05T00:24:28.312Z,19.95
2022-09-05T00:24:34.606Z,19.92
2022-09-05T00:24:35.777Z,19.95
2022-09-05T00:25:02.314Z,19.89
2022-09-05T00:25:45.562Z,19.84
2022-09-05T00:26:50.651Z,19.89
2022-09-05T00:27:45.568Z,19.81
2022-09-05T00:28:44.522Z,19.84
2022-09-05T00:31:07.268Z,19.84
2022-09-05T00:31:50.661Z,19.81
2022-09-05T00:31:53.610Z,19.82
2022-09-05T00:32:45.531Z,19.86
2022-09-05T00:33:44.470Z,19.77
2022-09-05T00:34:47.756Z,19.84
2022-09-05T00:35:44.478Z,19.81
2022-09-05T00:36:44.425Z,19.88
2022-09-05T00:37:44.437Z,19.76
2022-09-05T00:38:44.405Z,19.88
2022-09-05T00:39:47.956Z,19.86
2022-09-05T00:40:45.410Z,19.86
2022-09-05T00:41:44.389Z,19.73
2022-09-05T00:42:44.375Z,19.67
2022-09-05T00:43:44.356Z,19.70
2022-09-05T00:44:44.339Z,19.73
2022-09-05T00:45:44.335Z,19.64
2022-09-05T00:46:44.367Z,19.62
2022-09-05T00:47:48.308Z,19.69
2022-09-05T00:48:44.306Z,19.58
2022-09-05T00:49:44.298Z,19.63
2022-09-05T00:50:44.270Z,19.54
2022-09-05T00:51:44.265Z,19.52
2022-09-05T00:52:44.253Z,19.58
2022-09-05T00:53:45.256Z,19.51
2022-09-05T00:54:44.245Z,19.49
2022-09-05T00:55:44.222Z,19.47
2022-09-05T00:56:44.208Z,19.44
2022-09-05T00:57:44.198Z,19.34
2022-09-05T00:58:44.217Z,19.30
2022-09-05T00:59:58.639Z,19.36
2022-09-05T01:00:45.164Z,19.33
2022-09-05T01:01:44.215Z,19.41
2022-09-05T01:02:51.343Z,19.33
2022-09-05T01:03:45.299Z,19.48
2022-09-05T01:04:44.114Z,19.39
2022-09-05T01:05:44.107Z,19.40
2022-09-05T01:06:44.096Z,19.40
2022-09-05T01:07:46.698Z,19.30
2022-09-05T01:08:44.072Z,19.30
2022-09-05T01:09:44.080Z,19.39
2022-09-05T01:10:44.047Z,19.33
2022-09-05T01:11:44.057Z,19.22
2022-09-05T01:12:52.748Z,19.27
2022-09-05T01:13:45.020Z,19.33
2022-09-05T01:14:44.020Z,19.30
2022-09-05T01:15:44.124Z,19.34
2022-09-05T01:16:45.118Z,19.31
2022-09-05T01:17:43.977Z,19.26
2022-09-05T01:18:43.960Z,19.24
2022-09-05T01:19:43.966Z,19.30
2022-09-05T01:20:43.939Z,19.30
2022-09-05T01:21:48.263Z,19.30
2022-09-05T01:22:43.922Z,19.26
2022-09-05T01:23:43.915Z,19.31
2022-09-05T01:24:43.916Z,19.33
2022-09-05T01:25:46.979Z,19.29
2022-09-05T01:26:44.904Z,19.34
2022-09-05T01:29:01.302Z,19.30
2022-09-05T01:29:16.328Z,19.30
2022-09-05T01:29:44.862Z,19.31
2022-09-05T01:30:43.881Z,19.29
2022-09-05T01:31:43.837Z,19.31
2022-09-05T01:32:43.814Z,19.26
2022-09-05T01:33:43.809Z,19.26
2022-09-05T01:34:43.782Z,19.22
2022-09-05T01:35:52.314Z,19.29
2022-09-05T01:36:44.767Z,19.30
2022-09-05T01:37:50.850Z,19.31
2022-09-05T01:38:44.583Z,19.29
2022-09-05T01:40:11.607Z,19.33
2022-09-05T01:40:44.810Z,19.26
2022-09-05T01:41:44.747Z,19.19
2022-09-05T01:42:43.694Z,19.29
2022-09-05T01:43:43.715Z,19.24
2022-09-05T01:44:43.682Z,19.16
2022-09-05T01:45:43.988Z,19.14
2022-09-05T01:46:43.746Z,19.04
2022-09-05T01:47:43.642Z,19.09
2022-09-05T01:48:47.462Z,19.12
2022-09-05T01:49:43.625Z,19.07
2022-09-05T01:50:43.622Z,19.00
2022-09-05T01:51:43.639Z,18.99
2022-09-05T01:52:51.632Z,18.99
2022-09-05T01:53:44.620Z,18.98
2022-09-05T01:54:43.561Z,18.93
2022-09-05T01:56:03.979Z,18.93
2022-09-05T01:56:44.594Z,18.98
2022-09-05T01:57:43.534Z,18.88
2022-09-05T01:58:43.525Z,19.02
2022-09-05T01:59:46.022Z,18.89
2022-09-05T02:00:43.503Z,18.95
2022-09-05T02:01:43.532Z,18.93
2022-09-05T02:02:50.624Z,18.95
2022-09-05T02:03:44.471Z,18.93
2022-09-05T02:04:43.459Z,18.92
2022-09-05T02:05:47.687Z,18.89
2022-09-05T02:06:44.161Z,18.90
2022-09-05T02:07:43.455Z,18.84
2022-09-05T02:08:43.408Z,18.84
2022-09-05T02:09:43.440Z,18.84
2022-09-05T02:10:43.383Z,18.78
2022-09-05T02:11:43.378Z,18.81
2022-09-05T02:12:43.379Z,18.77
2022-09-05T02:13:44.357Z,18.78
2022-09-05T02:14:43.387Z,18.80
2022-09-05T02:15:52.330Z,18.75
2022-09-05T02:16:44.328Z,18.75
2022-09-05T02:17:49.512Z,18.65
2022-09-05T02:18:44.392Z,18.70
2022-09-05T02:19:43.295Z,18.74
2022-09-05T02:20:43.275Z,18.63
2022-09-05T02:21:55.958Z,18.68
2022-09-05T02:22:44.275Z,18.56
2022-09-05T02:23:43.906Z,18.63
2022-09-05T02:24:43.227Z,18.53
2022-09-05T02:26:01.107Z,18.58
2022-09-05T02:26:44.215Z,18.58
2022-09-05T02:28:04.673Z,18.55
2022-09-05T02:28:44.197Z,18.50
2022-09-05T02:29:43.179Z,18.52
2022-09-05T02:30:51.724Z,18.43
2022-09-05T02:31:44.246Z,18.50
2022-09-05T02:32:43.379Z,18.45
2022-09-05T02:33:43.145Z,18.44
2022-09-05T02:34:43.131Z,18.43
2022-09-05T02:35:43.110Z,18.44
2022-09-05T02:36:43.099Z,18.40
2022-09-05T02:39:28.346Z,18.43
2022-09-05T02:40:53.531Z,18.47
2022-09-05T02:45:02.628Z,18.44
2022-09-05T02:45:06.435Z,18.41
2022-09-05T02:45:10.274Z,18.35
2022-09-05T02:45:16.343Z,18.26
2022-09-05T02:45:18.108Z,18.43
2022-09-05T02:45:18.299Z,18.31
2022-09-05T02:45:44.113Z,18.23
2022-09-05T02:46:43.260Z,18.31
2022-09-05T02:47:42.984Z,18.37
2022-09-05T02:48:42.963Z,18.25
2022-09-05T02:51:30.854Z,18.20
2022-09-05T02:54:27.709Z,18.28
2022-09-05T02:57:27.444Z,18.23
2022-09-05T02:57:35.597Z,18.18
2022-09-05T02:57:35.920Z,18.25
2022-09-05T02:57:38.796Z,18.10
2022-09-05T02:57:40.615Z,18.15
2022-09-05T02:57:43.490Z,18.20
2022-09-05T02:58:05.673Z,18.11
2022-09-05T02:59:08.501Z,18.05
2022-09-05T02:59:43.843Z,18.05
2022-09-05T03:00:42.831Z,18.05
2022-09-05T03:01:42.940Z,18.13
2022-09-05T03:02:42.825Z,18.00
2022-09-05T03:03:42.800Z,18.07
2022-09-05T03:04:42.790Z,18.04
2022-09-05T03:05:42.784Z,17.94
2022-09-05T03:06:42.773Z,18.10
2022-09-05T03:07:42.860Z,18.00
2022-09-05T03:08:42.742Z,18.04
2022-09-05T03:09:42.733Z,17.98
2022-09-05T03:10:54.184Z,18.03
2022-09-05T03:11:43.711Z,18.03
2022-09-05T03:12:42.701Z,18.00
2022-09-05T03:13:48.908Z,18.01
2022-09-05T03:14:43.682Z,17.95
2022-09-05T03:15:42.675Z,17.98
2022-09-05T03:16:47.685Z,18.03
2022-09-05T03:17:43.645Z,18.01
2022-09-05T03:18:42.684Z,17.98
2022-09-05T03:19:46.495Z,18.01
2022-09-05T03:20:42.609Z,17.98
2022-09-05T03:21:42.607Z,18.01
2022-09-05T03:22:42.591Z,17.92
2022-09-05T03:23:42.594Z,17.92
2022-09-05T03:24:42.580Z,17.97
2022-09-05T03:25:43.555Z,17.95
2022-09-05T03:26:42.546Z,17.94
2022-09-05T03:27:42.536Z,18.00
2022-09-05T03:28:42.540Z,17.92
2022-09-05T03:29:42.523Z,17.92
2022-09-05T03:30:42.610Z,17.98
2022-09-05T03:31:42.492Z,17.87
2022-09-05T03:32:42.485Z,17.83
2022-09-05T03:33:42.470Z,17.87
2022-09-05T03:34:42.575Z,17.90
2022-09-05T03:35:42.450Z,17.92
2022-09-05T03:36:42.434Z,17.86
2022-09-05T03:37:42.427Z,17.86
2022-09-05T03:38:43.311Z,17.87
2022-09-05T03:39:42.544Z,17.85
2022-09-05T03:40:42.418Z,17.82
2022-09-05T03:41:42.408Z,17.86
2022-09-05T03:42:42.372Z,17.87
2022-09-05T03:43:42.359Z,17.86
2022-09-05T03:44:42.347Z,17.82
2022-09-05T03:45:42.420Z,17.85
2022-09-05T03:46:42.323Z,17.85
2022-09-05T03:47:42.319Z,17.86
2022-09-05T03:48:42.307Z,17.86
2022-09-05T03:51:41.759Z,17.86
2022-09-05T03:57:05.273Z,17.90
2022-09-05T03:57:07.847Z,17.85
2022-09-05T03:57:16.114Z,17.82
2022-09-05T03:57:22.885Z,17.82
2022-09-05T03:57:23.405Z,17.82
2022-09-05T03:57:24.170Z,17.80
2022-09-05T03:57:25.814Z,17.82
2022-09-05T03:57:43.483Z,17.78
2022-09-05T03:58:56.412Z,17.85
2022-09-05T03:59:43.193Z,17.85
2022-09-05T04:00:42.193Z,17.79
2022-09-05T04:03:42.235Z,17.85
2022-09-05T04:08:08.536Z,17.83
2022-09-05T04:08:08.673Z,17.92
2022-09-05T04:08:09.553Z,17.87
2022-09-05T04:08:13.749Z,17.98
2022-09-05T04:08:19.425Z,17.92
2022-09-05T04:08:26.467Z,18.01
2022-09-05T04:08:43.749Z,18.00
2022-09-05T04:09:51.215Z,17.98
2022-09-05T04:10:43.177Z,17.92
2022-09-05T04:11:42.064Z,17.90
2022-09-05T04:12:42.040Z,17.98
2022-09-05T04:13:42.027Z,17.95
2022-09-05T04:14:42.023Z,17.98
2022-09-05T04:15:42.032Z,17.98
2022-09-05T04:16:42.067Z,17.94
2022-09-05T04:17:42.001Z,18.00
2022-09-05T04:18:41.969Z,18.01
2022-09-05T04:19:41.991Z,17.95
2022-09-05T04:20:41.953Z,17.92
2022-09-05T04:21:41.944Z,17.98
2022-09-05T04:22:41.951Z,17.95
2022-09-05T04:23:41.927Z,17.90
2022-09-05T04:24:41.912Z,17.86
2022-09-05T04:25:41.898Z,17.87
2022-09-05T04:26:41.881Z,17.83
2022-09-05T04:27:41.893Z,17.85
2022-09-05T04:28:44.556Z,17.87
2022-09-05T04:29:42.851Z,17.86
2022-09-05T04:30:41.871Z,17.86
2022-09-05T04:31:41.940Z,17.90
2022-09-05T04:32:41.829Z,17.87
2022-09-05T04:33:41.808Z,17.80
2022-09-05T04:34:41.806Z,17.87
2022-09-05T04:35:41.797Z,17.83
2022-09-05T04:36:41.783Z,17.83
2022-09-05T04:37:48.816Z,17.85
2022-09-05T04:38:42.754Z,17.89
2022-09-05T04:39:41.791Z,17.83
2022-09-05T04:40:41.728Z,17.95
2022-09-05T04:41:41.727Z,17.86
2022-09-05T04:42:41.720Z,17.86
2022-09-05T04:43:41.698Z,17.83
2022-09-05T04:44:41.684Z,17.82
2022-09-05T04:45:41.719Z,17.78
2022-09-05T04:46:48.360Z,17.72
2022-09-05T04:47:42.668Z,17.71
2022-09-05T04:48:41.684Z,17.79
2022-09-05T04:49:41.629Z,17.78
2022-09-05T04:50:41.624Z,17.79
2022-09-05T04:51:41.615Z,17.76
2022-09-05T04:52:41.646Z,17.70
2022-09-05T04:53:41.601Z,17.71
2022-09-05T04:54:41.578Z,17.65
2022-09-05T04:55:41.576Z,17.67
2022-09-05T04:56:42.734Z,17.64
2022-09-05T04:57:41.555Z,17.64
2022-09-05T05:00:08.981Z,17.67
2022-09-05T05:04:22.421Z,17.67
2022-09-05T05:05:58.163Z,17.70
2022-09-05T05:06:03.086Z,17.65
2022-09-05T05:06:08.155Z,17.57
2022-09-05T05:06:10.661Z,17.71
2022-09-05T05:06:11.900Z,17.57
2022-09-05T05:06:11.904Z,17.68
2022-09-05T05:06:46.372Z,17.60
2022-09-05T05:07:41.584Z,17.60
2022-09-05T05:08:41.531Z,17.63
2022-09-05T05:09:41.403Z,17.54
2022-09-05T05:11:31.890Z,17.60
2022-09-05T05:17:56.164Z,17.63
2022-09-05T05:17:56.454Z,17.54
2022-09-05T05:18:03.083Z,17.60
2022-09-05T05:18:06.877Z,17.57
2022-09-05T05:18:07.041Z,17.59
2022-09-05T05:18:14.831Z,17.60
2022-09-05T05:18:15.467Z,17.52
2022-09-05T05:18:54.962Z,17.48
2022-09-05T05:19:42.333Z,17.57
2022-09-05T05:20:43.906Z,17.54
2022-09-05T05:21:41.284Z,17.54
2022-09-05T05:22:41.280Z,17.49
2022-09-05T05:23:41.274Z,17.57
2022-09-05T05:24:41.242Z,17.52
2022-09-05T05:25:41.250Z,17.48
2022-09-05T05:26:41.223Z,17.51
2022-09-05T05:27:41.206Z,17.54
2022-09-05T05:28:41.200Z,17.52
2022-09-05T05:29:41.199Z,17.49
2022-09-05T05:30:41.176Z,17.56
2022-09-05T05:31:41.216Z,17.60
2022-09-05T05:32:45.490Z,17.57
2022-09-05T05:33:42.153Z,17.57
2022-09-05T05:34:41.133Z,17.49
2022-09-05T05:35:48.233Z,17.57
2022-09-05T05:36:42.109Z,17.57
2022-09-05T05:37:41.099Z,17.57
2022-09-05T05:38:41.164Z,17.59
2022-09-05T05:39:41.125Z,17.60
2022-09-05T05:40:50.519Z,17.52
2022-09-05T05:41:42.108Z,17.64
2022-09-05T05:42:41.044Z,17.57
2022-09-05T05:43:46.084Z,17.59
2022-09-05T05:44:42.043Z,17.59
2022-09-05T05:45:41.043Z,17.56
2022-09-05T05:46:41.003Z,17.65
2022-09-05T05:47:41.010Z,17.48
2022-09-05T05:48:42.206Z,17.54
2022-09-05T05:49:41.969Z,17.63
2022-09-05T05:50:40.959Z,17.59
2022-09-05T05:52:02.698Z,17.63
2022-09-05T05:52:41.938Z,17.48
2022-09-05T05:53:43.954Z,17.63
2022-09-05T05:54:40.930Z,17.60
2022-09-05T05:55:52.958Z,17.51
2022-09-05T05:56:41.892Z,17.63
2022-09-05T05:57:40.877Z,17.63
2022-09-05T05:58:40.875Z,17.56
2022-09-05T05:59:40.872Z,17.60
2022-09-05T06:00:41.849Z,17.52
2022-09-05T06:01:41.943Z,17.65
2022-09-05T06:02:40.934Z,17.67
2022-09-05T06:03:40.914Z,17.70
2022-09-05T06:04:41.428Z,17.74
2022-09-05T06:05:40.827Z,17.80
2022-09-05T06:06:40.779Z,17.86
2022-09-05T06:08:02.536Z,17.79
2022-09-05T06:12:18.925Z,18.04
2022-09-05T06:14:47.974Z,18.07
2022-09-05T06:14:49.121Z,18.11
2022-09-05T06:14:50.807Z,18.20
2022-09-05T06:15:01.326Z,18.53
2022-09-05T06:15:02.503Z,18.31
2022-09-05T06:15:02.809Z,18.22
2022-09-05T06:15:41.675Z,18.80
2022-09-05T06:16:40.755Z,19.18
2022-09-05T06:17:40.652Z,19.30
2022-09-05T06:18:45.575Z,19.69
2022-09-05T06:20:11.089Z,19.95
2022-09-05T06:22:06.675Z,20.16
2022-09-05T06:22:11.183Z,20.36
2022-09-05T06:22:41.598Z,20.48
2022-09-05T06:23:40.643Z,20.58
2022-09-05T06:24:40.608Z,20.74
2022-09-05T06:25:40.562Z,20.97
2022-09-05T06:26:40.559Z,21.05
2022-09-05T06:28:01.436Z,21.22
2022-09-05T06:28:41.547Z,21.37
2022-09-05T06:29:42.882Z,21.42
2022-09-05T06:30:41.568Z,21.61
2022-09-05T06:31:40.555Z,21.96
2022-09-05T06:32:41.768Z,22.14
2022-09-05T06:33:41.474Z,22.33
2022-09-05T06:34:40.490Z,22.36
2022-09-05T06:35:40.453Z,22.32
2022-09-05T06:36:40.457Z,22.29
2022-09-05T06:37:40.433Z,22.26
2022-09-05T06:38:40.427Z,22.29
2022-09-05T06:39:40.477Z,22.51
2022-09-05T06:40:41.415Z,22.63
2022-09-05T06:41:40.412Z,22.75
2022-09-05T06:42:43.198Z,23.06
2022-09-05T06:43:40.365Z,23.03
2022-09-05T06:44:40.357Z,23.13
2022-09-05T06:45:40.347Z,23.32
2022-09-05T06:46:55.101Z,23.62
2022-09-05T06:47:41.394Z,23.83
2022-09-05T06:48:45.586Z,23.73
2022-09-05T06:49:45.423Z,23.83
2022-09-05T06:51:06.846Z,23.92
2022-09-05T06:51:44.202Z,24.16
2022-09-05T06:52:40.291Z,24.20
2022-09-05T06:53:40.256Z,24.21
2022-09-05T06:54:40.252Z,24.38
2022-09-05T06:55:41.241Z,24.35
2022-09-05T06:56:40.246Z,24.17
2022-09-05T06:57:44.115Z,23.96
2022-09-05T06:58:40.205Z,24.18
2022-09-05T06:59:40.191Z,24.40
2022-09-05T07:00:40.234Z,24.60
2022-09-05T07:01:59.975Z,24.80
2022-09-05T07:02:59.314Z,24.85
2022-09-05T07:03:41.150Z,24.96
2022-09-05T07:05:24.764Z,24.91
2022-09-05T07:05:45.185Z,24.85
2022-09-05T07:06:40.120Z,24.70
2022-09-05T07:07:45.693Z,24.42
2022-09-05T07:08:40.095Z,24.23
2022-09-05T07:09:40.083Z,24.32
2022-09-05T07:10:40.112Z,24.39
2022-09-05T07:11:40.065Z,24.57
2022-09-05T07:12:40.075Z,24.81
2022-09-05T07:13:44.654Z,24.99
2022-09-05T07:14:40.047Z,25.03
2022-09-05T07:15:40.021Z,25.16
2022-09-05T07:16:40.060Z,25.18
2022-09-05T07:17:59.725Z,25.32
2022-09-05T07:18:40.992Z,25.48
2022-09-05T07:19:39.985Z,25.53
2022-09-05T07:20:50.496Z,25.51
2022-09-05T07:21:40.957Z,25.54
2022-09-05T07:22:47.416Z,25.28
2022-09-05T07:24:05.572Z,25.14
2022-09-05T07:24:54.151Z,25.16
2022-09-05T07:25:40.915Z,25.03
2022-09-05T07:26:54.115Z,24.91
2022-09-05T07:27:42.007Z,24.76
2022-09-05T07:28:40.911Z,24.73
2022-09-05T07:29:39.888Z,24.55
2022-09-05T07:30:40.862Z,24.61
2022-09-05T07:31:39.893Z,24.53
2022-09-05T07:32:39.844Z,24.26
2022-09-05T07:33:39.871Z,24.13
2022-09-05T07:34:39.824Z,23.98
2022-09-05T07:35:42.460Z,23.99
2022-09-05T07:36:39.797Z,23.91
2022-09-05T07:37:39.788Z,23.86
2022-09-05T07:38:55.280Z,23.95
2022-09-05T07:39:40.863Z,24.10
2022-09-05T07:40:39.821Z,24.08
2022-09-05T07:41:39.754Z,24.02
2022-09-05T07:42:39.735Z,24.10
2022-09-05T07:43:39.721Z,24.08
2022-09-05T07:44:39.710Z,24.06
2022-09-05T07:45:46.407Z,24.02
2022-09-05T07:46:40.693Z,23.98
2022-09-05T07:47:39.679Z,24.08
2022-09-05T07:48:39.669Z,24.11
2022-09-05T07:49:50.544Z,24.14
2022-09-05T07:52:41.807Z,24.16
2022-09-05T07:56:51.466Z,24.53
2022-09-05T07:56:54.387Z,24.13
2022-09-05T07:56:55.882Z,24.33
2022-09-05T07:57:07.808Z,24.30
2022-09-05T07:57:08.676Z,24.33
2022-09-05T07:57:09.217Z,24.45
2022-09-05T07:57:51.044Z,24.61
2022-09-05T07:58:40.559Z,24.70
2022-09-05T07:59:39.548Z,24.81
2022-09-05T08:00:39.586Z,24.78
2022-09-05T08:01:39.857Z,24.84
2022-09-05T08:02:44.045Z,24.96
2022-09-05T08:03:40.504Z,24.99
2022-09-05T08:04:39.543Z,24.99
2022-09-05T08:05:39.560Z,25.06
2022-09-05T08:07:22.250Z,25.11
2022-09-05T08:07:49.590Z,25.14
2022-09-05T08:08:40.448Z,25.11
2022-09-05T08:10:06.469Z,25.13
2022-09-05T08:11:23.994Z,25.22
2022-09-05T08:11:40.415Z,25.18
2022-09-05T08:13:23.044Z,25.25
2022-09-05T08:13:40.627Z,25.28
2022-09-05T08:14:45.260Z,25.38
2022-09-05T08:16:11.129Z,25.41
2022-09-05T08:16:40.379Z,25.43
2022-09-05T08:17:39.369Z,25.50
2022-09-05T08:18:42.578Z,25.54
2022-09-05T08:19:39.354Z,25.65
2022-09-05T08:20:39.319Z,25.66
2022-09-05T08:21:40.133Z,25.66
2022-09-05T08:22:39.302Z,25.58
2022-09-05T08:23:39.303Z,25.59
2022-09-05T08:24:39.276Z,25.59
2022-09-05T08:25:56.551Z,25.58
2022-09-05T08:26:44.081Z,25.66
2022-09-05T08:27:40.237Z,25.66
2022-09-05T08:28:39.896Z,25.63
2022-09-05T08:29:39.227Z,25.73
2022-09-05T08:30:39.207Z,25.73
2022-09-05T08:31:42.128Z,25.80
2022-09-05T08:32:39.187Z,25.84
2022-09-05T08:33:39.189Z,25.87
2022-09-05T08:34:44.857Z,26.06
2022-09-05T08:35:40.149Z,26.09
2022-09-05T08:36:39.140Z,26.19
2022-09-05T08:37:39.139Z,26.19
2022-09-05T08:38:40.919Z,26.16
2022-09-05T08:39:39.179Z,26.13
2022-09-05T08:40:39.098Z,26.16
2022-09-05T08:41:51.108Z,26.26
2022-09-05T08:42:40.076Z,26.22
2022-09-05T08:46:35.358Z,26.22
2022-09-05T08:46:43.898Z,26.23
2022-09-05T08:46:45.032Z,26.38
2022-09-05T08:46:49.060Z,26.38
2022-09-05T08:47:45.055Z,26.36
2022-09-05T08:48:40.020Z,26.36
2022-09-05T08:49:44.062Z,26.33
2022-09-05T08:50:40.005Z,26.43
2022-09-05T08:51:46.091Z,26.43
2022-09-05T08:52:39.966Z,26.56
2022-09-05T08:53:46.238Z,26.47
2022-09-05T08:54:39.956Z,26.68
2022-09-05T08:55:38.930Z,26.75
2022-09-05T08:56:38.922Z,26.85
2022-09-05T08:57:38.908Z,27.10
2022-09-05T08:58:38.913Z,27.10
2022-09-05T08:59:47.785Z,27.21
2022-09-05T09:00:39.950Z,27.26
2022-09-05T09:01:48.957Z,27.39
2022-09-05T09:02:46.728Z,27.42
2022-09-05T09:03:39.903Z,27.44
2022-09-05T09:05:00.734Z,27.40
2022-09-05T09:05:59.384Z,27.52
2022-09-05T09:06:39.810Z,27.47
2022-09-05T09:07:51.203Z,27.44
2022-09-05T09:08:39.789Z,27.64
2022-09-05T09:09:38.784Z,27.70
2022-09-05T09:10:38.795Z,27.82
2022-09-05T09:11:38.867Z,27.82
2022-09-05T09:12:38.741Z,27.82
2022-09-05T09:13:38.756Z,27.96
2022-09-05T09:14:38.727Z,27.93
2022-09-05T09:15:38.724Z,27.95
2022-09-05T09:16:38.697Z,28.05
2022-09-05T09:17:38.722Z,27.95
2022-09-05T09:18:38.699Z,28.15
2022-09-05T09:19:38.671Z,28.22
2022-09-05T09:20:38.656Z,28.25
2022-09-05T09:21:39.644Z,28.30
2022-09-05T09:22:38.629Z,28.20
2022-09-05T09:23:38.666Z,28.25
2022-09-05T09:24:38.612Z,28.22
2022-09-05T09:25:38.609Z,28.25
2022-09-05T09:26:38.601Z,28.29
2022-09-05T09:28:45.021Z,28.27
2022-09-05T09:28:50.546Z,28.26
2022-09-05T09:29:39.555Z,28.33
2022-09-05T09:30:38.587Z,28.48
2022-09-05T09:31:38.602Z,28.56
2022-09-05T09:32:38.530Z,28.60
2022-09-05T09:33:38.530Z,28.67
2022-09-05T09:34:41.863Z,28.64
2022-09-05T09:35:39.491Z,28.66
2022-09-05T09:36:38.509Z,28.76
2022-09-05T09:37:51.046Z,28.81
2022-09-05T09:38:39.466Z,28.86
2022-09-05T09:39:39.807Z,28.97
2022-09-05T09:40:38.434Z,28.98
2022-09-05T09:41:38.423Z,29.02
2022-09-05T09:42:38.412Z,29.19
2022-09-05T09:43:38.432Z,29.16
2022-09-05T09:44:39.430Z,29.16
2022-09-05T09:45:38.389Z,29.08
2022-09-05T09:46:39.146Z,29.07
2022-09-05T09:47:38.365Z,29.14
2022-09-05T09:48:38.346Z,29.22
2022-09-05T09:49:38.420Z,29.27
2022-09-05T09:50:38.325Z,29.16
2022-09-05T09:51:39.316Z,29.12
2022-09-05T09:52:38.304Z,29.17
2022-09-05T09:53:38.296Z,29.16
2022-09-05T09:54:38.284Z,29.12
2022-09-05T09:55:38.312Z,29.13
2022-09-05T09:56:38.262Z,29.10
2022-09-05T09:57:38.253Z,29.17
2022-09-05T09:58:38.245Z,29.08
2022-09-05T09:59:45.336Z,29.16
2022-09-05T10:00:39.237Z,29.23
2022-09-05T10:01:38.304Z,29.22
2022-09-05T10:04:31.359Z,29.23
2022-09-05T10:07:57.425Z,29.26
2022-09-05T10:10:35.742Z,29.27
2022-09-05T10:10:37.772Z,29.47
2022-09-05T10:10:46.919Z,29.56
2022-09-05T10:10:47.950Z,29.47
2022-09-05T10:10:49.406Z,29.50
2022-09-05T10:10:51.125Z,29.57
2022-09-05T10:11:22.782Z,29.61
2022-09-05T10:11:55.687Z,29.72
2022-09-05T10:12:39.094Z,29.75
2022-09-05T10:13:38.080Z,29.73
2022-09-05T10:14:49.391Z,29.81
2022-09-05T10:15:39.094Z,29.82
2022-09-05T10:16:38.065Z,29.78
2022-09-05T10:17:38.076Z,29.69
2022-09-05T10:18:38.027Z,29.66
2022-09-05T10:20:39.002Z,29.82
2022-09-05T10:21:38.009Z,29.78
2022-09-05T10:22:38.196Z,29.60
2022-09-05T10:23:38.013Z,29.47
2022-09-05T10:24:37.959Z,29.41
2022-09-05T10:25:37.956Z,29.47
2022-09-05T10:26:37.957Z,29.45
2022-09-05T10:27:37.964Z,29.57
2022-09-05T10:28:38.920Z,29.60
2022-09-05T10:29:38.748Z,29.54
2022-09-05T10:32:17.940Z,29.51
2022-09-05T10:34:42.463Z,29.56
2022-09-05T10:35:04.928Z,29.79
2022-09-05T10:35:10.732Z,29.73
2022-09-05T10:35:14.165Z,29.73
2022-09-05T10:35:38.931Z,29.78
2022-09-05T10:36:37.843Z,29.73
2022-09-05T10:37:37.834Z,29.81
2022-09-05T10:38:37.832Z,29.82
2022-09-05T10:39:37.880Z,29.79
2022-09-05T10:41:05.136Z,29.82
2022-09-05T10:41:38.796Z,29.86
2022-09-05T10:42:43.397Z,29.81
2022-09-05T10:43:38.757Z,29.87
2022-09-05T10:44:37.748Z,29.90
2022-09-05T10:45:38.477Z,29.86
2022-09-05T10:46:50.844Z,29.76
2022-09-05T10:47:38.726Z,29.72
2022-09-05T10:48:37.704Z,29.76
2022-09-05T10:49:37.712Z,29.82
2022-09-05T10:50:37.680Z,29.79
2022-09-05T10:51:37.995Z,29.81
2022-09-05T10:52:37.690Z,29.84
2022-09-05T10:53:39.565Z,29.82
2022-09-05T10:54:37.637Z,29.87
2022-09-05T10:55:37.648Z,29.91
2022-09-05T10:56:37.622Z,29.94
2022-09-05T10:57:37.606Z,30.02
2022-09-05T11:00:52.066Z,30.13
2022-09-05T11:02:18.937Z,30.10
2022-09-05T11:02:20.361Z,30.08
2022-09-05T11:02:24.100Z,30.12
2022-09-05T11:02:43.884Z,30.10
2022-09-05T11:03:38.702Z,30.15
2022-09-05T11:04:46.789Z,30.25
2022-09-05T11:05:38.662Z,30.39
2022-09-05T11:06:37.508Z,30.39
2022-09-05T11:07:37.542Z,30.47
2022-09-05T11:08:37.519Z,30.21
2022-09-05T11:09:37.478Z,30.24
2022-09-05T11:10:37.468Z,30.24
2022-09-05T11:11:37.458Z,30.12
2022-09-05T11:12:37.445Z,30.10
2022-09-05T11:13:37.470Z,30.28
2022-09-05T11:14:37.436Z,30.28
2022-09-05T11:15:37.461Z,30.30
2022-09-05T11:16:38.494Z,30.40
2022-09-05T11:17:37.396Z,30.43
2022-09-05T11:18:56.275Z,30.54
2022-09-05T11:19:38.412Z,30.55
2022-09-05T11:20:37.357Z,30.53
2022-09-05T11:21:37.350Z,30.59
2022-09-05T11:22:37.336Z,30.55
2022-09-05T11:23:37.328Z,30.66
2022-09-05T11:24:37.329Z,30.69
2022-09-05T11:25:40.439Z,30.68
2022-09-05T11:26:37.293Z,30.57
2022-09-05T11:27:37.283Z,30.27
2022-09-05T11:28:37.700Z,30.13
2022-09-05T11:29:38.274Z,30.00
2022-09-05T11:30:38.894Z,29.98
2022-09-05T11:32:08.485Z,29.97
2022-09-05T11:34:19.548Z,30.03
2022-09-05T11:36:33.702Z,30.09
2022-09-05T11:39:45.663Z,29.97
2022-09-05T11:39:49.071Z,30.03
2022-09-05T11:40:05.889Z,30.35
2022-09-05T11:40:09.885Z,30.46
2022-09-05T11:40:10.436Z,30.13
2022-09-05T11:40:10.956Z,30.09
2022-09-05T11:40:52.666Z,30.59
2022-09-05T11:41:38.154Z,30.66
2022-09-05T11:42:37.120Z,30.69
2022-09-05T11:43:37.117Z,30.70
2022-09-05T11:44:37.130Z,30.69
2022-09-05T11:45:37.094Z,30.75
2022-09-05T11:46:37.178Z,30.75
2022-09-05T11:47:42.242Z,30.90
2022-09-05T11:48:38.055Z,30.87
2022-09-05T11:49:37.049Z,30.99
2022-09-05T11:50:37.045Z,30.90
2022-09-05T11:51:37.056Z,31.02
2022-09-05T11:52:37.010Z,30.80
2022-09-05T11:53:37.007Z,30.73
2022-09-05T11:54:36.991Z,30.53
2022-09-05T11:55:36.995Z,30.48
2022-09-05T11:56:44.065Z,30.43
2022-09-05T11:57:37.965Z,30.32
2022-09-05T11:58:45.183Z,30.32
2022-09-05T11:59:37.948Z,30.13
2022-09-05T12:00:37.942Z,30.03
2022-09-05T12:01:42.698Z,30.03
2022-09-05T12:02:37.964Z,30.02
2022-09-05T12:03:57.222Z,29.98
2022-09-05T12:04:37.913Z,29.98
2022-09-05T12:05:49.606Z,29.93
2022-09-05T12:06:37.914Z,29.97
2022-09-05T12:07:37.908Z,29.93
2022-09-05T12:08:36.844Z,29.88
2022-09-05T12:09:36.855Z,29.86
2022-09-05T12:10:47.150Z,29.76
2022-09-05T12:11:37.812Z,29.81
2022-09-05T12:12:40.911Z,29.93
2022-09-05T12:13:36.792Z,30.05
2022-09-05T12:14:36.808Z,30.21
2022-09-05T12:15:36.814Z,30.31
2022-09-05T12:16:36.800Z,30.39
2022-09-05T12:17:36.753Z,30.32
2022-09-05T12:18:36.735Z,30.35
2022-09-05T12:19:36.739Z,30.50
2022-09-05T12:20:43.295Z,30.51
2022-09-05T12:21:38.284Z,30.50
2022-09-05T12:22:36.693Z,30.53
2022-09-05T12:24:24.210Z,30.51
2022-09-05T12:25:23.708Z,30.48
2022-09-05T12:27:41.007Z,30.39
2022-09-05T12:27:43.062Z,30.25
2022-09-05T12:27:45.591Z,30.31
2022-09-05T12:29:28.087Z,30.27
2022-09-05T12:29:46.999Z,30.32
2022-09-05T12:31:00.516Z,30.53
2022-09-05T12:33:32.826Z,30.31
2022-09-05T12:36:01.353Z,30.24
2022-09-05T12:36:07.819Z,30.23
2022-09-05T12:36:10.818Z,30.12
2022-09-05T12:38:59.043Z,30.15
2022-09-05T12:40:54.951Z,30.37
2022-09-05T12:40:55.038Z,30.30
2022-09-05T12:40:55.232Z,30.39
2022-09-05T12:41:36.873Z,30.48
2022-09-05T12:41:39.227Z,30.46
2022-09-05T12:42:09.753Z,30.62
2022-09-05T12:42:49.717Z,30.70
2022-09-05T12:44:38.393Z,30.63
2022-09-05T12:44:44.288Z,30.46
2022-09-05T12:45:38.114Z,30.43
2022-09-05T12:46:36.433Z,30.47
2022-09-05T12:47:36.429Z,30.51
2022-09-05T12:48:38.836Z,30.46
2022-09-05T12:49:36.556Z,30.57
2022-09-05T12:50:36.402Z,30.62
2022-09-05T12:51:47.059Z,30.69
2022-09-05T12:52:37.367Z,30.75
2022-09-05T12:53:36.371Z,30.69